createdAt,value
2023-08-26T00:00:50.070Z,8.65
2023-08-26T00:08:11.393Z,6.97
2023-08-26T00:10:38.446Z,10.57
2023-08-26T00:13:05.348Z,9.57
2023-08-26T00:15:32.330Z,4.95
2023-08-26T00:17:59.793Z,5.95
2023-08-26T00:20:27.746Z,6.82
2023-08-26T00:22:54.633Z,4.65
2023-08-26T00:25:21.639Z,5.32
2023-08-26T00:27:48.565Z,5.60
2023-08-26T00:30:15.463Z,5.40
2023-08-26T00:32:42.753Z,5.38
2023-08-26T00:35:10.944Z,6.10
2023-08-26T00:37:37.838Z,6.75
2023-08-26T00:40:05.327Z,6.63
2023-08-26T00:42:38.464Z,6.35
2023-08-26T00:45:06.646Z,5.65
2023-08-26T00:47:33.633Z,6.72
2023-08-26T00:50:00.711Z,8.50
2023-08-26T00:52:28.702Z,6.00
2023-08-26T00:54:56.061Z,7.72
2023-08-26T00:57:23.166Z,6.05
2023-08-26T00:59:51.080Z,7.68
2023-08-26T01:02:18.055Z,7.18
2023-08-26T01:07:13.873Z,7.72
2023-08-26T01:09:40.886Z,7.03
2023-08-26T01:12:58.338Z,8.13
2023-08-26T01:15:28.178Z,8.55
2023-08-26T01:17:56.134Z,8.23
2023-08-26T01:20:25.399Z,10.98
2023-08-26T01:22:56.926Z,11.13
2023-08-26T01:25:23.935Z,14.93
2023-08-26T01:27:50.780Z,8.88
2023-08-26T01:30:18.361Z,9.75
2023-08-26T01:32:54.257Z,7.97
2023-08-26T01:35:31.038Z,8.48
2023-08-26T01:37:59.942Z,10.32
2023-08-26T01:40:28.372Z,12.07
2023-08-26T01:42:56.637Z,10.93
2023-08-26T01:45:23.589Z,9.75
2023-08-26T01:47:50.511Z,9.20
2023-08-26T01:50:17.556Z,7.50
2023-08-26T01:52:44.434Z,9.02
2023-08-26T01:55:11.382Z,12.45
2023-08-26T01:57:39.034Z,7.97
2023-08-26T02:00:06.526Z,9.02
2023-08-26T02:02:42.390Z,8.82
2023-08-26T02:05:09.424Z,7.25
2023-08-26T02:07:36.275Z,7.43
2023-08-26T02:10:03.256Z,7.22
2023-08-26T02:12:33.238Z,13.20
2023-08-26T02:15:02.252Z,7.05
2023-08-26T02:17:30.917Z,6.28
2023-08-26T02:19:57.929Z,5.60
2023-08-26T02:22:24.801Z,6.30
2023-08-26T02:24:52.471Z,7.82
2023-08-26T02:27:19.352Z,5.00
2023-08-26T02:29:46.194Z,4.85
2023-08-26T02:32:14.214Z,5.00
2023-08-26T02:34:41.134Z,5.93
2023-08-26T02:37:08.049Z,5.03
2023-08-26T02:39:36.612Z,4.65
2023-08-26T02:42:03.599Z,3.85
2023-08-26T02:44:30.496Z,5.22
2023-08-26T02:46:57.452Z,4.65
2023-08-26T02:49:24.302Z,4.65
2023-08-26T02:51:51.156Z,4.45
2023-08-26T02:54:18.050Z,5.20
2023-08-26T02:56:44.937Z,6.72
2023-08-26T02:59:11.806Z,4.80
2023-08-26T03:01:40.567Z,4.20
2023-08-26T03:04:07.511Z,4.97
2023-08-26T03:06:34.498Z,4.13
2023-08-26T03:09:01.331Z,4.45
2023-08-26T03:11:28.349Z,4.25
2023-08-26T03:13:55.203Z,5.40
2023-08-26T03:16:22.175Z,3.33
2023-08-26T03:18:49.104Z,3.15
2023-08-26T03:21:15.962Z,3.20
2023-08-26T03:23:42.860Z,7.03
2023-08-26T03:26:09.847Z,2.95
2023-08-26T03:28:36.727Z,3.15
2023-08-26T03:31:07.783Z,2.67
2023-08-26T03:33:36.622Z,2.05
2023-08-26T03:36:07.438Z,2.00
2023-08-26T03:38:35.703Z,1.77
2023-08-26T03:41:04.584Z,1.80
2023-08-26T03:43:31.772Z,2.28
2023-08-26T03:45:59.945Z,1.67
2023-08-26T03:48:27.098Z,1.63
2023-08-26T03:50:55.992Z,1.70
2023-08-26T03:53:23.372Z,1.25
2023-08-26T03:55:50.408Z,1.00
2023-08-26T03:58:18.166Z,1.23
2023-08-26T04:00:45.122Z,1.30
2023-08-26T04:03:12.237Z,1.67
2023-08-26T04:05:40.763Z,1.40
2023-08-26T04:08:07.968Z,1.13
2023-08-26T04:13:19.352Z,0.95
2023-08-26T04:15:46.332Z,2.10
2023-08-26T04:18:15.134Z,1.33
2023-08-26T04:20:43.765Z,2.05
2023-08-26T04:23:11.060Z,2.05
2023-08-26T04:28:08.693Z,1.13
2023-08-26T04:30:37.417Z,0.75
2023-08-26T04:33:05.622Z,0.90
2023-08-26T04:35:33.138Z,0.90
2023-08-26T04:38:03.695Z,1.60
2023-08-26T04:40:30.686Z,0.65
2023-08-26T04:42:57.916Z,0.70
2023-08-26T04:45:25.772Z,1.00
2023-08-26T04:47:53.173Z,0.73
2023-08-26T04:50:20.144Z,0.90
2023-08-26T04:52:47.066Z,5.25
2023-08-26T04:55:14.086Z,0.93
2023-08-26T04:57:41.015Z,9.70
2023-08-26T05:00:12.044Z,1.00
2023-08-26T05:02:39.996Z,1.08
2023-08-26T05:05:09.267Z,1.55
2023-08-26T05:07:36.185Z,2.67
2023-08-26T05:10:04.747Z,0.70
2023-08-26T05:12:32.542Z,1.77
2023-08-26T05:14:59.471Z,3.03
2023-08-26T05:17:26.848Z,1.38
2023-08-26T05:19:53.789Z,1.00
2023-08-26T05:22:23.141Z,1.38
2023-08-26T05:24:50.080Z,0.75
2023-08-26T05:27:18.649Z,4.13
2023-08-26T05:29:45.859Z,0.80
2023-08-26T05:32:12.787Z,1.08
2023-08-26T05:34:39.793Z,0.95
2023-08-26T05:37:06.752Z,0.90
2023-08-26T05:39:33.605Z,2.38
2023-08-26T05:42:00.456Z,1.00
2023-08-26T05:44:27.402Z,0.73
2023-08-26T05:46:55.561Z,0.65
2023-08-26T05:49:22.611Z,1.02
2023-08-26T05:51:49.464Z,0.95
2023-08-26T05:56:43.720Z,0.90
2023-08-26T05:59:10.596Z,0.75
2023-08-26T06:01:38.847Z,5.57
2023-08-26T06:04:06.464Z,1.05
2023-08-26T06:06:33.391Z,0.93
2023-08-26T06:09:00.350Z,0.70
2023-08-26T06:11:27.488Z,1.40
2023-08-26T06:13:54.459Z,0.80
2023-08-26T06:16:21.626Z,0.88
2023-08-26T06:21:16.263Z,0.80
2023-08-26T06:26:10.111Z,0.90
2023-08-26T06:28:39.143Z,0.80
2023-08-26T06:31:07.548Z,0.60
2023-08-26T06:33:40.127Z,0.65
2023-08-26T06:36:09.102Z,1.55
2023-08-26T06:38:35.947Z,0.85
2023-08-26T06:41:04.675Z,0.70
2023-08-26T06:43:31.552Z,0.60
2023-08-26T06:45:59.946Z,0.93
2023-08-26T06:48:28.644Z,3.45
2023-08-26T06:50:55.524Z,0.75
2023-08-26T06:53:22.489Z,0.70
2023-08-26T06:55:50.843Z,0.65
2023-08-26T06:58:18.061Z,0.63
2023-08-26T07:00:45.187Z,1.17
2023-08-26T07:03:12.425Z,0.60
2023-08-26T07:08:06.938Z,1.00
2023-08-26T07:10:33.885Z,0.60
2023-08-26T07:13:00.786Z,0.52
2023-08-26T07:15:27.673Z,0.50
2023-08-26T07:17:55.615Z,0.60
2023-08-26T07:20:22.813Z,0.70
2023-08-26T07:22:49.791Z,0.70
2023-08-26T07:25:18.859Z,0.70
2023-08-26T07:27:46.698Z,0.60
2023-08-26T07:30:14.916Z,0.60
2023-08-26T07:32:42.792Z,0.60
2023-08-26T07:35:11.012Z,0.57
2023-08-26T07:37:38.330Z,0.60
2023-08-26T07:40:08.867Z,0.50
2023-08-26T07:42:36.620Z,0.60
2023-08-26T07:45:04.154Z,0.80
2023-08-26T07:50:01.149Z,0.50
2023-08-26T07:52:29.979Z,2.38
2023-08-26T07:54:57.366Z,0.55
2023-08-26T07:57:24.238Z,0.70
2023-08-26T07:59:51.166Z,0.70
2023-08-26T08:02:18.743Z,0.68
2023-08-26T08:04:46.084Z,0.75
2023-08-26T08:09:40.557Z,0.52
2023-08-26T08:12:09.500Z,0.70
2023-08-26T08:14:36.507Z,0.60
2023-08-26T08:17:04.336Z,0.73
2023-08-26T08:19:31.500Z,0.57
2023-08-26T08:21:58.378Z,0.82
2023-08-26T08:24:25.280Z,0.52
2023-08-26T08:26:52.231Z,0.60
2023-08-26T08:29:19.180Z,0.70
2023-08-26T08:31:46.119Z,0.45
2023-08-26T08:34:13.052Z,1.05
2023-08-26T08:36:39.923Z,0.60
2023-08-26T08:39:07.404Z,0.65
2023-08-26T08:41:37.491Z,1.52
2023-08-26T08:44:11.742Z,0.50
2023-08-26T08:46:40.085Z,0.50
2023-08-26T08:49:07.575Z,0.70
2023-08-26T08:51:38.106Z,2.08
2023-08-26T08:54:05.841Z,0.50
2023-08-26T08:56:35.714Z,1.55
2023-08-26T08:59:05.385Z,0.43
2023-08-26T09:01:32.352Z,0.52
2023-08-26T09:03:59.228Z,0.50
2023-08-26T09:06:26.745Z,0.95
2023-08-26T09:11:22.017Z,0.50
2023-08-26T09:13:48.962Z,0.50
2023-08-26T09:16:15.923Z,0.50
2023-08-26T09:18:42.879Z,0.70
2023-08-26T09:21:11.570Z,0.65
2023-08-26T09:23:43.456Z,0.40
2023-08-26T09:26:10.839Z,0.50
2023-08-26T09:28:38.586Z,1.20
2023-08-26T09:31:09.157Z,0.40
2023-08-26T09:33:36.125Z,0.63
2023-08-26T09:38:45.265Z,0.40
2023-08-26T09:41:12.724Z,0.47
2023-08-26T09:43:44.957Z,3.50
2023-08-26T09:46:22.112Z,0.60
2023-08-26T09:48:50.150Z,0.40
2023-08-26T09:51:30.990Z,0.40
2023-08-26T09:53:59.171Z,2.45
2023-08-26T09:56:27.821Z,0.50
2023-08-26T09:58:56.401Z,0.40
2023-08-26T10:01:24.702Z,0.60
2023-08-26T10:04:01.494Z,0.50
2023-08-26T10:06:30.559Z,0.52
2023-08-26T10:09:06.529Z,0.40
2023-08-26T10:11:39.773Z,0.60
2023-08-26T10:14:14.282Z,0.47
2023-08-26T10:16:42.749Z,0.43
2023-08-26T10:19:10.052Z,0.50
2023-08-26T10:21:37.425Z,0.47
2023-08-26T10:24:06.012Z,1.52
2023-08-26T10:26:33.687Z,0.30
2023-08-26T10:29:01.046Z,0.95
2023-08-26T10:31:36.745Z,0.40
2023-08-26T10:34:09.506Z,1.23
2023-08-26T10:36:41.244Z,0.57
2023-08-26T10:39:16.920Z,0.30
2023-08-26T10:42:14.275Z,1.08
2023-08-26T10:44:43.816Z,0.30
2023-08-26T10:47:11.492Z,0.47
2023-08-26T10:49:38.785Z,0.77
2023-08-26T10:52:32.889Z,0.30
2023-08-26T10:55:14.026Z,0.30
2023-08-26T10:58:09.701Z,0.40
2023-08-26T11:00:39.111Z,0.50
2023-08-26T11:03:10.882Z,2.22
2023-08-26T11:05:38.691Z,0.30
2023-08-26T11:08:06.581Z,0.45
2023-08-26T11:10:35.781Z,0.40
2023-08-26T11:13:04.929Z,5.95
2023-08-26T11:15:37.125Z,0.40
2023-08-26T11:18:08.608Z,0.40
2023-08-26T11:20:36.794Z,0.30
2023-08-26T11:23:05.199Z,0.65
2023-08-26T11:25:33.830Z,0.22
2023-08-26T11:28:11.726Z,1.05
2023-08-26T11:30:43.543Z,0.63
2023-08-26T11:33:13.540Z,0.30
2023-08-26T11:35:44.995Z,0.30
2023-08-26T11:38:13.371Z,0.30
2023-08-26T11:40:41.236Z,0.75
2023-08-26T11:43:08.236Z,1.55
2023-08-26T11:48:03.723Z,0.30
2023-08-26T11:50:32.495Z,0.30
2023-08-26T11:53:03.995Z,0.40
2023-08-26T11:55:32.462Z,0.40
2023-08-26T11:58:01.282Z,0.30
2023-08-26T12:00:29.118Z,0.30
2023-08-26T12:03:04.771Z,0.38
2023-08-26T12:05:45.681Z,0.40
2023-08-26T12:08:21.078Z,0.50
2023-08-26T12:10:53.339Z,0.40
2023-08-26T12:13:21.057Z,0.22
2023-08-26T12:15:48.395Z,0.30
2023-08-26T12:18:16.174Z,1.30
2023-08-26T12:20:47.834Z,0.30
2023-08-26T12:23:19.074Z,0.40
2023-08-26T12:25:46.306Z,0.40
2023-08-26T12:28:19.332Z,0.30
2023-08-26T12:30:48.002Z,0.30
2023-08-26T12:33:24.491Z,0.32
2023-08-26T12:35:54.603Z,0.40
2023-08-26T12:38:24.748Z,0.38
2023-08-26T12:40:52.183Z,0.30
2023-08-26T12:43:22.551Z,0.30
2023-08-26T12:45:50.505Z,0.30
2023-08-26T12:48:31.454Z,0.40
2023-08-26T12:51:00.825Z,0.40
2023-08-26T12:55:54.641Z,0.20
2023-08-26T12:58:27.956Z,0.40
2023-08-26T13:00:54.903Z,0.30
2023-08-26T13:03:22.009Z,0.88
2023-08-26T13:05:53.148Z,0.30
2023-08-26T13:08:20.127Z,0.40
2023-08-26T13:13:13.925Z,0.47
2023-08-26T13:18:10.460Z,5.38
2023-08-26T13:20:41.265Z,0.40
2023-08-26T13:23:10.366Z,0.30
2023-08-26T13:25:38.226Z,3.13
2023-08-26T13:28:06.542Z,1.65
2023-08-26T13:30:33.926Z,0.63
2023-08-26T13:33:01.002Z,0.32
2023-08-26T13:35:27.892Z,0.35
2023-08-26T13:37:55.040Z,0.40
2023-08-26T13:40:22.059Z,0.40
2023-08-26T13:42:50.047Z,0.30
2023-08-26T13:45:17.023Z,0.40
2023-08-26T13:50:11.211Z,0.25
2023-08-26T13:52:38.054Z,0.30
2023-08-26T13:55:07.087Z,0.40
2023-08-26T13:57:35.740Z,0.43
2023-08-26T14:00:02.730Z,0.30
2023-08-26T14:02:39.405Z,0.40
2023-08-26T14:05:08.432Z,0.50
2023-08-26T14:07:35.354Z,0.47
2023-08-26T14:12:29.742Z,0.50
2023-08-26T14:14:56.744Z,0.40
2023-08-26T14:19:50.552Z,0.40
2023-08-26T14:24:48.795Z,0.30
2023-08-26T14:27:17.068Z,0.40
2023-08-26T14:29:44.105Z,0.47
2023-08-26T14:32:10.983Z,0.40
2023-08-26T14:37:04.942Z,0.40
2023-08-26T14:39:31.989Z,0.55
2023-08-26T14:41:58.860Z,0.30
2023-08-26T14:46:52.643Z,0.40
2023-08-26T14:51:46.301Z,0.40
2023-08-26T14:54:13.408Z,0.40
2023-08-26T14:56:40.306Z,0.40
2023-08-26T15:01:34.056Z,0.38
2023-08-26T15:06:28.142Z,0.43
2023-08-26T15:08:55.196Z,0.60
2023-08-26T15:13:49.358Z,0.30
2023-08-26T15:18:44.537Z,0.28
2023-08-26T15:21:11.753Z,0.30
2023-08-26T15:23:38.923Z,0.55
2023-08-26T15:26:06.184Z,0.40
2023-08-26T15:28:33.243Z,0.50
2023-08-26T15:31:00.279Z,0.40
2023-08-26T15:33:27.416Z,0.38
2023-08-26T15:40:25.759Z,0.40
2023-08-26T15:45:22.032Z,0.50
2023-08-26T15:47:48.965Z,0.45
2023-08-26T15:52:42.566Z,0.47
2023-08-26T15:55:09.767Z,0.35
2023-08-26T15:57:36.518Z,0.30
2023-08-26T16:00:04.582Z,0.30
2023-08-26T16:02:34.965Z,0.50
2023-08-26T16:07:30.247Z,0.40
2023-08-26T16:09:57.138Z,0.63
2023-08-26T16:12:23.897Z,0.68
2023-08-26T16:14:50.918Z,0.30
2023-08-26T16:17:17.679Z,0.40
2023-08-26T16:19:44.436Z,0.43
2023-08-26T16:22:11.217Z,0.30
2023-08-26T16:24:37.998Z,0.40
2023-08-26T16:27:05.069Z,0.40
2023-08-26T16:29:31.836Z,0.30
2023-08-26T16:31:58.618Z,0.50
2023-08-26T16:36:52.214Z,0.30
2023-08-26T16:39:19.373Z,0.80
2023-08-26T16:41:46.183Z,0.65
2023-08-26T16:44:12.944Z,0.50
2023-08-26T16:46:40.076Z,0.47
2023-08-26T16:49:06.883Z,0.40
2023-08-26T16:51:33.634Z,0.40
2023-08-26T16:54:00.428Z,0.40
2023-08-26T16:56:28.850Z,0.30
2023-08-26T16:58:55.695Z,0.30
2023-08-26T17:01:23.205Z,0.70
2023-08-26T17:03:50.073Z,0.55
2023-08-26T17:06:16.994Z,0.52
2023-08-26T17:08:43.787Z,0.40
2023-08-26T17:11:10.784Z,0.40
2023-08-26T17:16:06.634Z,0.40
2023-08-26T17:18:33.446Z,0.40
2023-08-26T17:21:00.339Z,0.47
2023-08-26T17:23:27.288Z,0.30
2023-08-26T17:25:54.134Z,0.40
2023-08-26T17:28:21.048Z,0.38
2023-08-26T17:30:47.960Z,0.65
2023-08-26T17:40:35.079Z,0.43
2023-08-26T17:43:01.904Z,0.50
2023-08-26T17:45:30.572Z,0.40
2023-08-26T17:47:57.389Z,0.30
2023-08-26T17:50:24.232Z,0.30
2023-08-26T17:52:51.343Z,0.43
2023-08-26T17:55:18.239Z,0.50
2023-08-26T17:57:46.149Z,0.40
2023-08-26T18:00:13.313Z,0.57
2023-08-26T18:02:40.142Z,0.93
2023-08-26T18:05:07.251Z,0.60
2023-08-26T18:19:47.623Z,0.50
2023-08-26T18:22:14.545Z,0.60
2023-08-26T18:24:41.358Z,0.73
2023-08-26T18:27:08.133Z,0.50
2023-08-26T18:29:41.605Z,0.50
2023-08-26T18:32:09.070Z,0.45
2023-08-26T18:34:36.111Z,0.52
2023-08-26T18:37:03.072Z,0.40
2023-08-26T18:39:30.948Z,0.40
2023-08-26T18:41:57.728Z,0.47
2023-08-26T18:44:24.525Z,0.50
2023-08-26T18:46:51.260Z,0.55
2023-08-26T18:49:18.051Z,0.52
2023-08-26T18:51:44.911Z,0.57
2023-08-26T18:54:13.306Z,0.68
2023-08-26T18:56:40.156Z,0.40
2023-08-26T18:59:06.949Z,0.52
2023-08-26T19:01:34.879Z,0.40
2023-08-26T19:04:01.679Z,0.38
2023-08-26T19:06:28.484Z,0.63
2023-08-26T19:08:55.319Z,0.50
2023-08-26T19:11:22.122Z,0.60
2023-08-26T19:13:48.957Z,0.40
2023-08-26T19:16:15.874Z,0.50
2023-08-26T19:18:42.999Z,0.50
2023-08-26T19:23:36.557Z,0.82
2023-08-26T19:26:03.473Z,2.38
2023-08-26T19:28:30.282Z,0.55
2023-08-26T19:30:57.184Z,1.95
2023-08-26T19:33:24.008Z,0.47
2023-08-26T19:35:50.825Z,0.52
2023-08-26T19:38:17.644Z,0.60
2023-08-26T19:40:44.454Z,0.60
2023-08-26T19:43:11.578Z,0.70
2023-08-26T19:48:07.485Z,0.50
2023-08-26T19:50:39.898Z,0.40
2023-08-26T19:53:07.455Z,0.43
2023-08-26T19:55:34.264Z,0.73
2023-08-26T19:58:01.101Z,1.95
2023-08-26T20:00:29.872Z,0.60
2023-08-26T20:02:57.297Z,0.50
2023-08-26T20:05:24.162Z,0.70
2023-08-26T20:07:51.053Z,0.68
2023-08-26T20:10:18.539Z,0.63
2023-08-26T20:12:48.637Z,0.55
2023-08-26T20:15:15.581Z,0.60
2023-08-26T20:17:42.575Z,0.70
2023-08-26T20:20:10.081Z,0.77
2023-08-26T20:22:38.460Z,0.47
2023-08-26T20:25:06.887Z,0.57
2023-08-26T20:27:34.411Z,0.57
2023-08-26T20:30:01.279Z,1.67
2023-08-26T20:32:28.936Z,0.50
2023-08-26T20:34:56.293Z,0.50
2023-08-26T20:39:51.194Z,0.50
2023-08-26T20:42:18.051Z,0.57
2023-08-26T20:44:45.107Z,0.60
2023-08-26T20:47:12.195Z,0.63
2023-08-26T20:49:39.174Z,0.93
2023-08-26T20:52:06.243Z,0.55
2023-08-26T20:54:33.277Z,0.57
2023-08-26T20:57:00.135Z,0.60
2023-08-26T20:59:27.060Z,0.52
2023-08-26T21:01:54.008Z,0.50
2023-08-26T21:04:21.057Z,0.47
2023-08-26T21:06:48.001Z,0.70
2023-08-26T21:09:14.876Z,0.60
2023-08-26T21:11:41.789Z,0.60
2023-08-26T21:14:09.194Z,0.40
2023-08-26T21:16:36.048Z,0.68
2023-08-26T21:19:04.374Z,0.77
2023-08-26T21:21:31.447Z,0.63
2023-08-26T21:23:58.337Z,0.73
2023-08-26T21:26:25.260Z,4.10
2023-08-26T21:28:52.155Z,0.77
2023-08-26T21:31:19.164Z,0.57
2023-08-26T21:33:46.474Z,0.85
2023-08-26T21:46:01.218Z,0.75
2023-08-26T21:48:28.828Z,0.55
2023-08-26T21:50:55.796Z,0.77
2023-08-26T21:53:22.915Z,3.40
2023-08-26T21:55:51.659Z,1.05
2023-08-26T21:58:18.681Z,0.70
2023-08-26T22:00:45.785Z,0.70
2023-08-26T22:03:12.682Z,0.70
2023-08-26T22:05:40.922Z,0.95
2023-08-26T22:08:08.148Z,1.45
2023-08-26T22:10:37.671Z,1.40
2023-08-26T22:13:06.728Z,0.55
2023-08-26T22:15:39.205Z,0.70
2023-08-26T22:18:07.057Z,1.15
2023-08-26T22:20:36.359Z,0.63
2023-08-26T22:23:03.264Z,0.70
2023-08-26T22:25:30.260Z,0.73
2023-08-26T22:27:57.244Z,0.90
2023-08-26T22:30:24.164Z,0.60
2023-08-26T22:32:51.118Z,0.93
2023-08-26T22:35:18.092Z,0.80
2023-08-26T22:37:45.192Z,0.90
2023-08-26T23:14:01.763Z,1.02
2023-08-26T23:16:29.279Z,1.17
2023-08-26T23:18:56.214Z,0.88
2023-08-26T23:21:23.132Z,1.17
2023-08-26T23:23:49.982Z,0.70
2023-08-26T23:26:17.459Z,4.95
2023-08-26T23:28:45.146Z,1.48
2023-08-26T23:31:12.021Z,0.70
2023-08-26T23:33:38.910Z,1.20
2023-08-26T23:36:05.810Z,0.90
2023-08-26T23:38:33.646Z,2.28
2023-08-26T23:41:01.581Z,1.20
2023-08-26T23:43:28.711Z,0.90
2023-08-26T23:45:55.825Z,1.20
2023-08-26T23:48:22.833Z,0.80
2023-08-26T23:50:49.682Z,0.90
2023-08-26T23:53:16.547Z,0.80
2023-08-26T23:55:43.379Z,0.90
2023-08-26T23:58:10.246Z,0.80
